Yamato — JD2252 — position and weather

sailwx.info

Track history (hours):
 
Tides and Currents Weather Stations Pressure Air Temp Water Temp Dewpoint Dewpoint Depression Visibility Wind Speed Wind Dir Waves Ship Positions

Yamato

Last reported at 2014-Sep-19 07:33 UTC. Time now 2014-Sep-19 07:54 UTC.
Position N 35°27' E 139°44'.

Length 40 m; draft 3.6 m.

Type: Tug. MMSI: 431101141.

Date/timePositionNaut miles runAvg speedWind from/ knotsBaromVisibWave heightAir tempDewpointWater temp
2014-Sep-19 07:33N 35°27' E 139°44'3 2.8
2014-Sep-19 06:33N 35°26' E 139°41'1 1.2
2014-Sep-19 05:33N 35°27' E 139°40'0 0.0
2014-Sep-19 04:33N 35°27' E 139°40'0 0.0
2014-Sep-19 03:33N 35°27' E 139°40'0 0.0
2014-Sep-19 02:33N 35°27' E 139°40'0 0.0
2014-Sep-19 01:33N 35°27' E 139°40'0 0.0
2014-Sep-19 00:33N 35°27' E 139°40'0 0.0
2014-Sep-18 23:33N 35°27' E 139°40'0 0.0
2014-Sep-18 22:33N 35°27' E 139°40'1 0.7
2014-Sep-18 21:33N 35°27' E 139°41'1 0.7
2014-Sep-18 20:33N 35°27' E 139°40'0 0.0
2014-Sep-18 07:10N 35°27' E 139°40'1 1.6
2014-Sep-18 06:33N 35°27' E 139°39'0 0.0
2014-Sep-18 05:33N 35°27' E 139°39'0 0.0
2014-Sep-18 04:33N 35°27' E 139°39'1 0.7
2014-Sep-18 03:33N 35°27' E 139°39'5 5.2
2014-Sep-18 02:33N 35°29' E 139°45'1 1.1
2014-Sep-18 01:33N 35°29' E 139°47'3 2.6
2014-Sep-18 00:33N 35°27' E 139°45'3 3.2
2014-Sep-17 23:33N 35°30' E 139°45'4 4.5
2014-Sep-17 22:34N 35°26' E 139°44'1 0.9
2014-Sep-17 21:33N 35°26' E 139°43'2 1.7
2014-Sep-17 20:33N 35°26' E 139°41'1 1.2
2014-Sep-17 19:33N 35°27' E 139°40'0 0.0
2014-Sep-17 18:33N 35°27' E 139°40'0 0.0
2014-Sep-17 17:33N 35°27' E 139°40'0 0.0
2014-Sep-17 16:33N 35°27' E 139°40'0 0.0
2014-Sep-17 15:33N 35°27' E 139°40'0 0.0
2014-Sep-17 14:33N 35°27' E 139°40'0 0.0
2014-Sep-17 13:33N 35°27' E 139°40'0 0.0
2014-Sep-17 12:33N 35°27' E 139°40'0 0.0
2014-Sep-17 11:33N 35°27' E 139°40'0 0.0
2014-Sep-17 10:33N 35°27' E 139°40'0 0.0
2014-Sep-17 09:33N 35°27' E 139°40'0 0.0
2014-Sep-17 08:33N 35°27' E 139°40'4 4.2
2014-Sep-17 07:34N 35°28' E 139°45'2 2.4
2014-Sep-17 06:33N 35°29' E 139°47'0 0.0
2014-Sep-17 05:33N 35°29' E 139°47'0 0.0
2014-Sep-17 04:33N 35°29' E 139°47'7 7.0
2014-Sep-17 03:33N 35°29' E 139°56'2 2.4
2014-Sep-17 02:33N 35°28' E 139°58'1 1.0
2014-Sep-17 01:33N 35°29' E 139°58'0 0.2
2014-Sep-17 00:33N 35°30' E 139°58'7 6.6
2014-Sep-16 23:33N 35°27' E 139°50'8 8.2
2014-Sep-16 22:33N 35°27' E 139°40'0 0.2
2014-Sep-16 21:33N 35°27' E 139°40'0 0.0
2014-Sep-16 10:09N 35°27' E 139°40'1 1.0
2014-Sep-16 09:33N 35°27' E 139°40'5 5.2
2014-Sep-16 08:33N 35°30' E 139°46'4 4.0
2014-Sep-16 07:33N 35°27' E 139°42'2 2.1
2014-Sep-16 06:33N 35°27' E 139°40'0 0.0
2014-Sep-16 05:33N 35°27' E 139°40'0 0.0
2014-Sep-16 04:33N 35°27' E 139°40'0 0.0
2014-Sep-16 03:33N 35°27' E 139°40'0 0.0
2014-Sep-16 02:33N 35°27' E 139°40'0 0.0
2014-Sep-16 01:33N 35°27' E 139°40'0 0.0
2014-Sep-16 00:34N 35°27' E 139°40'0 0.0
2014-Sep-15 23:34N 35°27' E 139°40'2 2.0
2014-Sep-15 22:33N 35°26' E 139°42'2 2.0
2014-Sep-15 21:33N 35°27' E 139°40'0 0.0
2014-Sep-15 20:33N 35°27' E 139°40'0 0.0
2014-Sep-14 07:11N 35°27' E 139°40'0 0.0
2014-Sep-14 06:33N 35°27' E 139°40'3 3.4
2014-Sep-14 05:33N 35°24' E 139°41'1 0.7
2014-Sep-14 04:34N 35°23' E 139°41'1 0.5
2014-Sep-14 03:33N 35°23' E 139°41'0 0.0
2014-Sep-14 02:33N 35°23' E 139°41'0 0.4
2014-Sep-14 01:33N 35°23' E 139°41'4 1.0
2014-Sep-13 21:33N 35°27' E 139°40'2 0.2
2014-Sep-13 09:33N 35°28' E 139°42'1 0.6
2014-Sep-13 08:33N 35°28' E 139°41'1 0.6
2014-Sep-13 07:33N 35°28' E 139°42'0 0.0
2014-Sep-13 06:33N 35°28' E 139°42'2 1.7
2014-Sep-13 05:33N 35°29' E 139°42'3 3.5
2014-Sep-13 04:33N 35°31' E 139°46'7 6.7
2014-Sep-13 03:33N 35°27' E 139°40'0 0.0
2014-Sep-13 02:33N 35°27' E 139°40'0 0.0
2014-Sep-13 01:33N 35°27' E 139°40'0 0.0
2014-Sep-13 00:33N 35°27' E 139°40'4 3.6
2014-Sep-12 23:33N 35°29' E 139°43'3 2.8
2014-Sep-12 22:33N 35°27' E 139°44'4 3.9
2014-Sep-12 21:33N 35°27' E 139°40'0 0.0
2014-Sep-11 23:18N 35°27' E 139°40'2 2.0
2014-Sep-11 22:34N 35°28' E 139°41'1 0.9
2014-Sep-11 21:33N 35°28' E 139°42'1 0.9
2014-Sep-11 20:34N 35°27' E 139°42'1 0.7
2014-Sep-11 19:33N 35°27' E 139°42'0 0.0
2014-Sep-11 18:33N 35°27' E 139°42'0 0.0
2014-Sep-11 17:34N 35°27' E 139°42'0 0.0
2014-Sep-11 16:33N 35°27' E 139°42'0 0.1
2014-Sep-11 15:33N 35°27' E 139°42'0 0.0
2014-Sep-11 14:33N 35°27' E 139°42'1 0.5
2014-Sep-11 13:33N 35°26' E 139°42'2 2.3
2014-Sep-11 12:34N 35°27' E 139°39'0 0.0
2014-Sep-11 11:34N 35°27' E 139°39'2 1.8
2014-Sep-11 10:34N 35°26' E 139°42'0 0.3
2014-Sep-11 09:34N 35°27' E 139°41'1 1.2
2014-Sep-11 08:33N 35°28' E 139°41'2 1.5
2014-Sep-11 07:33N 35°26' E 139°42'2 1.6
2014-Sep-11 06:34N 35°27' E 139°40'0 0.2
2014-Sep-11 05:34N 35°27' E 139°40'0 0.0
2014-Sep-11 04:33N 35°27' E 139°40'0 0.0
2014-Sep-11 03:33N 35°27' E 139°40'0 0.0
2014-Sep-11 02:34N 35°27' E 139°40'0 0.0
2014-Sep-11 01:34N 35°27' E 139°40'0 0.0
2014-Sep-11 00:34N 35°27' E 139°40'0 0.0
2014-Sep-10 23:33N 35°27' E 139°40'0 0.0
2014-Sep-10 22:33N 35°27' E 139°40'0 0.0
2014-Sep-10 21:34N 35°27' E 139°40'0 0.0
2014-Sep-10 07:09N 35°27' E 139°40'1 1.6
2014-Sep-10 06:33N 35°28' E 139°41'0 0.0
2014-Sep-10 05:33N 35°28' E 139°41'1 1.4
2014-Sep-10 04:33N 35°27' E 139°42'2 1.6
2014-Sep-10 03:33N 35°28' E 139°40'0 0.2
2014-Sep-10 02:33N 35°28' E 139°41'2 2.1
2014-Sep-10 01:33N 35°26' E 139°42'3 3.4
2014-Sep-10 00:34N 35°24' E 139°38'0 0.4
2014-Sep-09 23:34N 35°24' E 139°38'2 2.4
2014-Sep-09 22:33N 35°25' E 139°41'1 0.6
2014-Sep-09 21:34N 35°25' E 139°41'2 2.1
2014-Sep-09 20:33N 35°27' E 139°40'1 0.1
2014-Sep-09 10:34N 35°27' E 139°40'3 2.6
2014-Sep-09 09:33N 35°26' E 139°43'2 1.6
2014-Sep-09 08:33N 35°28' E 139°42'2 2.3
2014-Sep-09 07:33N 35°27' E 139°40'  
Track history (hours):
 
Tides and Currents Weather Stations Pressure Air Temp Water Temp Dewpoint Dewpoint Depression Visibility Wind Speed Wind Dir Waves Ship Positions

Yamato

Last reported at 2014-Sep-19 07:33 UTC. Time now 2014-Sep-19 07:54 UTC.
Position N 35°27' E 139°44'.

Length 40 m; draft 3.6 m.

Type: Tug. MMSI: 431101141.

Date/timePositionNaut miles runAvg speedWind from/ knotsBaromVisibWave heightAir tempDewpointWater temp
2014-Sep-19 07:33N 35°27' E 139°44'3 2.8
2014-Sep-19 06:33N 35°26' E 139°41'1 1.2
2014-Sep-19 05:33N 35°27' E 139°40'0 0.0
2014-Sep-19 04:33N 35°27' E 139°40'0 0.0
2014-Sep-19 03:33N 35°27' E 139°40'0 0.0
2014-Sep-19 02:33N 35°27' E 139°40'0 0.0
2014-Sep-19 01:33N 35°27' E 139°40'0 0.0
2014-Sep-19 00:33N 35°27' E 139°40'0 0.0
2014-Sep-18 23:33N 35°27' E 139°40'0 0.0
2014-Sep-18 22:33N 35°27' E 139°40'1 0.7
2014-Sep-18 21:33N 35°27' E 139°41'1 0.7
2014-Sep-18 20:33N 35°27' E 139°40'0 0.0
2014-Sep-18 07:10N 35°27' E 139°40'1 1.6
2014-Sep-18 06:33N 35°27' E 139°39'0 0.0
2014-Sep-18 05:33N 35°27' E 139°39'0 0.0
2014-Sep-18 04:33N 35°27' E 139°39'1 0.7
2014-Sep-18 03:33N 35°27' E 139°39'5 5.2
2014-Sep-18 02:33N 35°29' E 139°45'1 1.1
2014-Sep-18 01:33N 35°29' E 139°47'3 2.6
2014-Sep-18 00:33N 35°27' E 139°45'3 3.2
2014-Sep-17 23:33N 35°30' E 139°45'4 4.5
2014-Sep-17 22:34N 35°26' E 139°44'1 0.9
2014-Sep-17 21:33N 35°26' E 139°43'2 1.7
2014-Sep-17 20:33N 35°26' E 139°41'1 1.2
2014-Sep-17 19:33N 35°27' E 139°40'0 0.0
2014-Sep-17 18:33N 35°27' E 139°40'0 0.0
2014-Sep-17 17:33N 35°27' E 139°40'0 0.0
2014-Sep-17 16:33N 35°27' E 139°40'0 0.0
2014-Sep-17 15:33N 35°27' E 139°40'0 0.0
2014-Sep-17 14:33N 35°27' E 139°40'0 0.0
2014-Sep-17 13:33N 35°27' E 139°40'0 0.0
2014-Sep-17 12:33N 35°27' E 139°40'0 0.0
2014-Sep-17 11:33N 35°27' E 139°40'0 0.0
2014-Sep-17 10:33N 35°27' E 139°40'0 0.0
2014-Sep-17 09:33N 35°27' E 139°40'0 0.0
2014-Sep-17 08:33N 35°27' E 139°40'4 4.2
2014-Sep-17 07:34N 35°28' E 139°45'2 2.4
2014-Sep-17 06:33N 35°29' E 139°47'0 0.0
2014-Sep-17 05:33N 35°29' E 139°47'0 0.0
2014-Sep-17 04:33N 35°29' E 139°47'7 7.0
2014-Sep-17 03:33N 35°29' E 139°56'2 2.4
2014-Sep-17 02:33N 35°28' E 139°58'1 1.0
2014-Sep-17 01:33N 35°29' E 139°58'0 0.2
2014-Sep-17 00:33N 35°30' E 139°58'7 6.6
2014-Sep-16 23:33N 35°27' E 139°50'8 8.2
2014-Sep-16 22:33N 35°27' E 139°40'0 0.2
2014-Sep-16 21:33N 35°27' E 139°40'0 0.0
2014-Sep-16 10:09N 35°27' E 139°40'1 1.0
2014-Sep-16 09:33N 35°27' E 139°40'5 5.2
2014-Sep-16 08:33N 35°30' E 139°46'4 4.0
2014-Sep-16 07:33N 35°27' E 139°42'2 2.1
2014-Sep-16 06:33N 35°27' E 139°40'0 0.0
2014-Sep-16 05:33N 35°27' E 139°40'0 0.0
2014-Sep-16 04:33N 35°27' E 139°40'0 0.0
2014-Sep-16 03:33N 35°27' E 139°40'0 0.0
2014-Sep-16 02:33N 35°27' E 139°40'0 0.0
2014-Sep-16 01:33N 35°27' E 139°40'0 0.0
2014-Sep-16 00:34N 35°27' E 139°40'0 0.0
2014-Sep-15 23:34N 35°27' E 139°40'2 2.0
2014-Sep-15 22:33N 35°26' E 139°42'2 2.0
2014-Sep-15 21:33N 35°27' E 139°40'0 0.0
2014-Sep-15 20:33N 35°27' E 139°40'0 0.0
2014-Sep-14 07:11N 35°27' E 139°40'0 0.0
2014-Sep-14 06:33N 35°27' E 139°40'3 3.4
2014-Sep-14 05:33N 35°24' E 139°41'1 0.7
2014-Sep-14 04:34N 35°23' E 139°41'1 0.5
2014-Sep-14 03:33N 35°23' E 139°41'0 0.0
2014-Sep-14 02:33N 35°23' E 139°41'0 0.4
2014-Sep-14 01:33N 35°23' E 139°41'4 1.0
2014-Sep-13 21:33N 35°27' E 139°40'2 0.2
2014-Sep-13 09:33N 35°28' E 139°42'1 0.6
2014-Sep-13 08:33N 35°28' E 139°41'1 0.6
2014-Sep-13 07:33N 35°28' E 139°42'0 0.0
2014-Sep-13 06:33N 35°28' E 139°42'2 1.7
2014-Sep-13 05:33N 35°29' E 139°42'3 3.5
2014-Sep-13 04:33N 35°31' E 139°46'7 6.7
2014-Sep-13 03:33N 35°27' E 139°40'0 0.0
2014-Sep-13 02:33N 35°27' E 139°40'0 0.0
2014-Sep-13 01:33N 35°27' E 139°40'0 0.0
2014-Sep-13 00:33N 35°27' E 139°40'4 3.6
2014-Sep-12 23:33N 35°29' E 139°43'3 2.8
2014-Sep-12 22:33N 35°27' E 139°44'4 3.9
2014-Sep-12 21:33N 35°27' E 139°40'0 0.0
2014-Sep-11 23:18N 35°27' E 139°40'2 2.0
2014-Sep-11 22:34N 35°28' E 139°41'1 0.9
2014-Sep-11 21:33N 35°28' E 139°42'1 0.9
2014-Sep-11 20:34N 35°27' E 139°42'1 0.7
2014-Sep-11 19:33N 35°27' E 139°42'0 0.0
2014-Sep-11 18:33N 35°27' E 139°42'0 0.0
2014-Sep-11 17:34N 35°27' E 139°42'0 0.0
2014-Sep-11 16:33N 35°27' E 139°42'0 0.1
2014-Sep-11 15:33N 35°27' E 139°42'0 0.0
2014-Sep-11 14:33N 35°27' E 139°42'1 0.5
2014-Sep-11 13:33N 35°26' E 139°42'2 2.3
2014-Sep-11 12:34N 35°27' E 139°39'0 0.0
2014-Sep-11 11:34N 35°27' E 139°39'2 1.8
2014-Sep-11 10:34N 35°26' E 139°42'0 0.3
2014-Sep-11 09:34N 35°27' E 139°41'1 1.2
2014-Sep-11 08:33N 35°28' E 139°41'2 1.5
2014-Sep-11 07:33N 35°26' E 139°42'2 1.6
2014-Sep-11 06:34N 35°27' E 139°40'0 0.2
2014-Sep-11 05:34N 35°27' E 139°40'0 0.0
2014-Sep-11 04:33N 35°27' E 139°40'0 0.0
2014-Sep-11 03:33N 35°27' E 139°40'0 0.0
2014-Sep-11 02:34N 35°27' E 139°40'0 0.0
2014-Sep-11 01:34N 35°27' E 139°40'0 0.0
2014-Sep-11 00:34N 35°27' E 139°40'0 0.0
2014-Sep-10 23:33N 35°27' E 139°40'0 0.0
2014-Sep-10 22:33N 35°27' E 139°40'0 0.0
2014-Sep-10 21:34N 35°27' E 139°40'0 0.0
2014-Sep-10 07:09N 35°27' E 139°40'1 1.6
2014-Sep-10 06:33N 35°28' E 139°41'0 0.0
2014-Sep-10 05:33N 35°28' E 139°41'1 1.4
2014-Sep-10 04:33N 35°27' E 139°42'2 1.6
2014-Sep-10 03:33N 35°28' E 139°40'0 0.2
2014-Sep-10 02:33N 35°28' E 139°41'2 2.1
2014-Sep-10 01:33N 35°26' E 139°42'3 3.4
2014-Sep-10 00:34N 35°24' E 139°38'0 0.4
2014-Sep-09 23:34N 35°24' E 139°38'2 2.4
2014-Sep-09 22:33N 35°25' E 139°41'1 0.6
2014-Sep-09 21:34N 35°25' E 139°41'2 2.1
2014-Sep-09 20:33N 35°27' E 139°40'1 0.1
2014-Sep-09 10:34N 35°27' E 139°40'3 2.6
2014-Sep-09 09:33N 35°26' E 139°43'2 1.6
2014-Sep-09 08:33N 35°28' E 139°42'2 2.3
2014-Sep-09 07:33N 35°27' E 139°40'  

Dump ship's entire track history